createdAt,value
2022-10-30T00:00:06.217Z,12
2022-10-30T00:05:16.484Z,12
2022-10-30T00:10:16.503Z,10
2022-10-30T00:16:06.246Z,10
2022-10-30T00:21:16.477Z,11
2022-10-30T00:26:16.502Z,9
2022-10-30T00:31:16.563Z,12
2022-10-30T00:37:06.239Z,10
2022-10-30T00:42:16.483Z,11
2022-10-30T00:47:16.555Z,13
2022-10-30T00:53:06.186Z,11
2022-10-30T00:58:06.196Z,11
2022-10-30T01:03:06.234Z,11
2022-10-30T01:08:06.242Z,9
2022-10-30T01:13:16.521Z,12
2022-10-30T01:19:06.292Z,11
2022-10-30T01:24:16.498Z,11
2022-10-30T01:29:16.547Z,11
2022-10-30T01:35:06.021Z,11
2022-10-30T01:40:05.996Z,12
2022-10-30T01:45:16.254Z,13
2022-10-30T01:50:16.283Z,15
2022-10-30T01:55:16.333Z,10
2022-10-30T02:01:06.090Z,12
2022-10-30T02:06:16.339Z,13
2022-10-30T02:12:05.992Z,11
2022-10-30T02:17:06.015Z,8
2022-10-30T02:22:06.112Z,9
2022-10-30T02:27:06.055Z,9
2022-10-30T02:32:16.270Z,9
2022-10-30T02:37:16.333Z,11
2022-10-30T02:42:16.340Z,12
2022-10-30T02:48:06.303Z,11
2022-10-30T02:53:06.278Z,10
2022-10-30T02:58:06.354Z,12
2022-10-30T03:03:18.756Z,14
2022-10-30T03:09:06.252Z,13
2022-10-30T03:14:06.238Z,9
2022-10-30T03:19:16.499Z,13
2022-10-30T03:24:16.572Z,13
2022-10-30T03:30:06.223Z,13
2022-10-30T03:35:16.334Z,13
2022-10-30T03:41:06.210Z,13
2022-10-30T03:46:16.370Z,11
2022-10-30T03:51:16.496Z,9
2022-10-30T03:56:16.547Z,14
2022-10-30T04:01:16.656Z,11
2022-10-30T04:07:06.231Z,10
2022-10-30T04:12:06.268Z,14
2022-10-30T04:17:16.480Z,10
2022-10-30T04:22:16.540Z,12
2022-10-30T04:28:06.243Z,14
2022-10-30T04:33:16.567Z,13
2022-10-30T04:39:06.224Z,12
2022-10-30T04:44:06.258Z,11
2022-10-30T04:49:16.322Z,11
2022-10-30T04:54:16.507Z,10
2022-10-30T04:59:16.594Z,9
2022-10-30T05:05:06.240Z,12
2022-10-30T05:10:16.527Z,13
2022-10-30T05:16:06.380Z,13
2022-10-30T05:21:16.517Z,13
2022-10-30T05:26:16.546Z,13
2022-10-30T05:31:16.578Z,13
2022-10-30T05:37:06.226Z,12
2022-10-30T05:42:09.810Z,9
2022-10-30T05:47:06.296Z,11
2022-10-30T05:52:16.511Z,11
2022-10-30T05:57:16.592Z,14
2022-10-30T06:03:06.392Z,14
2022-10-30T06:08:16.336Z,13
2022-10-30T06:13:16.509Z,11
2022-10-30T06:19:06.303Z,12
2022-10-30T06:24:16.557Z,11
2022-10-30T06:30:06.049Z,13
2022-10-30T06:35:16.550Z,12
2022-10-30T06:41:06.050Z,13
2022-10-30T06:51:16.329Z,13
2022-10-30T06:56:16.511Z,14
2022-10-30T07:01:16.622Z,10
2022-10-30T07:07:06.244Z,11
2022-10-30T07:12:16.311Z,14
2022-10-30T07:17:23.464Z,14
2022-10-30T07:23:06.026Z,14
2022-10-30T07:28:06.233Z,10
2022-10-30T07:33:06.250Z,11
2022-10-30T07:38:06.261Z,13
2022-10-30T07:43:06.392Z,14
2022-10-30T07:48:16.551Z,12
2022-10-30T07:54:06.082Z,11
2022-10-30T07:59:16.354Z,12
2022-10-30T08:04:16.354Z,11
2022-10-30T08:10:06.105Z,10
2022-10-30T08:15:16.361Z,11
2022-10-30T08:20:16.417Z,10
2022-10-30T08:26:06.071Z,13
2022-10-30T08:31:16.406Z,12
2022-10-30T08:37:06.103Z,10
2022-10-30T08:42:16.360Z,12
2022-10-30T08:47:16.395Z,10
2022-10-30T08:52:16.376Z,13
2022-10-30T08:58:06.134Z,15
2022-10-30T09:03:06.461Z,13
2022-10-30T09:08:16.395Z,10
2022-10-30T09:13:16.564Z,13
2022-10-30T09:19:06.296Z,11
2022-10-30T09:24:06.331Z,15
2022-10-30T09:29:16.303Z,15
2022-10-30T09:34:16.823Z,9
2022-10-30T09:40:06.241Z,13
2022-10-30T09:45:28.561Z,13
2022-10-30T09:51:06.082Z,13
2022-10-30T09:56:16.557Z,12
2022-10-30T10:02:06.465Z,8
2022-10-30T10:07:16.579Z,14
2022-10-30T10:12:16.584Z,16
2022-10-30T10:18:06.245Z,10
2022-10-30T10:23:06.278Z,13
2022-10-30T10:28:06.259Z,12
2022-10-30T10:33:06.340Z,13
2022-10-30T10:38:16.624Z,11
2022-10-30T10:43:16.610Z,11
2022-10-30T10:49:06.261Z,13
2022-10-30T10:54:06.718Z,13
2022-10-30T10:59:16.804Z,13
2022-10-30T11:05:06.066Z,12
2022-10-30T11:10:06.094Z,11
2022-10-30T11:15:06.270Z,15
2022-10-30T11:20:06.754Z,15
2022-10-30T11:25:16.735Z,15
2022-10-30T11:31:06.268Z,17
2022-10-30T11:36:07.643Z,10
2022-10-30T11:41:16.620Z,10
2022-10-30T11:46:16.614Z,10
2022-10-30T11:52:06.289Z,12
2022-10-30T11:57:06.347Z,10
2022-10-30T12:02:16.758Z,12
2022-10-30T12:08:06.087Z,11
2022-10-30T12:13:06.332Z,13
2022-10-30T12:18:06.316Z,13
2022-10-30T12:23:16.605Z,13
2022-10-30T12:29:06.321Z,11
2022-10-30T12:34:06.447Z,12
2022-10-30T12:39:16.356Z,10
2022-10-30T12:44:16.578Z,11
2022-10-30T12:49:16.544Z,12
2022-10-30T12:55:06.292Z,14
2022-10-30T13:00:16.775Z,9
2022-10-30T13:06:06.299Z,8
2022-10-30T13:11:16.586Z,10
2022-10-30T13:17:06.341Z,8
2022-10-30T13:22:06.342Z,9
2022-10-30T13:27:16.632Z,7
2022-10-30T13:33:06.108Z,7
2022-10-30T13:38:06.310Z,11
2022-10-30T13:43:06.338Z,8
2022-10-30T13:48:16.649Z,10
2022-10-30T13:54:06.097Z,9
2022-10-30T13:59:06.126Z,7
2022-10-30T14:04:06.145Z,8
2022-10-30T14:09:06.177Z,9
2022-10-30T14:14:16.422Z,8
2022-10-30T14:20:12.474Z,11
2022-10-30T14:25:06.271Z,9
2022-10-30T14:30:16.432Z,8
2022-10-30T14:36:06.179Z,9
2022-10-30T14:41:16.369Z,10
2022-10-30T14:46:16.450Z,8
2022-10-30T14:52:06.185Z,8
2022-10-30T14:57:16.441Z,9
2022-10-30T15:03:06.186Z,8
2022-10-30T15:08:06.334Z,8
2022-10-30T15:13:16.460Z,8
2022-10-30T15:19:06.223Z,8
2022-10-30T15:24:16.583Z,6
2022-10-30T15:29:16.602Z,8
2022-10-30T15:34:16.617Z,7
2022-10-30T15:39:16.637Z,7
2022-10-30T15:45:06.148Z,8
2022-10-30T15:50:06.155Z,8
2022-10-30T15:55:06.173Z,9
2022-10-30T16:05:16.639Z,7
2022-10-30T16:11:06.161Z,7
2022-10-30T16:16:06.603Z,10
2022-10-30T16:21:16.893Z,6
2022-10-30T16:27:06.177Z,9
2022-10-30T16:32:06.435Z,9
2022-10-30T16:37:16.644Z,7
2022-10-30T16:43:06.141Z,8
2022-10-30T16:54:06.237Z,11
2022-10-30T16:59:16.485Z,10
2022-10-30T17:04:16.503Z,11
2022-10-30T17:09:26.979Z,12
2022-10-30T17:15:06.175Z,10
2022-10-30T17:20:16.685Z,14
2022-10-30T17:25:16.705Z,16
2022-10-30T17:31:06.200Z,18
2022-10-30T17:36:16.681Z,19
2022-10-30T17:41:16.649Z,12
2022-10-30T17:46:20.188Z,11
2022-10-30T17:52:06.162Z,9
2022-10-30T17:57:16.487Z,8
2022-10-30T18:02:16.698Z,11
2022-10-30T18:08:06.222Z,11
2022-10-30T18:13:16.690Z,15
2022-10-30T18:19:06.177Z,12
2022-10-30T18:24:16.475Z,10
2022-10-30T18:29:16.661Z,13
2022-10-30T18:34:16.715Z,13
2022-10-30T18:40:06.231Z,11
2022-10-30T18:45:16.451Z,11
2022-10-30T18:50:16.611Z,14
2022-10-30T18:55:16.694Z,11
2022-10-30T19:01:12.118Z,13
2022-10-30T19:06:06.208Z,15
2022-10-30T19:11:06.416Z,11
2022-10-30T19:16:16.723Z,12
2022-10-30T19:22:06.177Z,14
2022-10-30T19:27:16.734Z,15
2022-10-30T19:33:06.094Z,12
2022-10-30T19:38:06.161Z,12
2022-10-30T19:43:06.233Z,19
2022-10-30T19:48:20.726Z,15
2022-10-30T19:53:16.647Z,15
2022-10-30T19:59:06.297Z,14
2022-10-30T20:04:16.688Z,16
2022-10-30T20:09:16.729Z,21
2022-10-30T20:15:06.446Z,16
2022-10-30T20:20:16.456Z,16
2022-10-30T20:25:16.626Z,18
2022-10-30T20:31:06.192Z,27
2022-10-30T20:36:06.187Z,32
2022-10-30T20:41:24.909Z,32
2022-10-30T20:47:06.314Z,31
2022-10-30T20:52:16.529Z,29
2022-10-30T20:58:06.228Z,21
2022-10-30T21:03:16.539Z,21
2022-10-30T21:08:16.529Z,21
2022-10-30T21:14:06.165Z,17
2022-10-30T21:19:16.505Z,17
2022-10-30T21:24:16.493Z,18
2022-10-30T21:30:06.233Z,22
2022-10-30T21:35:16.546Z,17
2022-10-30T21:40:16.603Z,20
2022-10-30T21:46:06.202Z,19
2022-10-30T21:51:06.338Z,15
2022-10-30T21:56:16.653Z,15
2022-10-30T22:02:06.545Z,17
2022-10-30T22:07:16.483Z,13
2022-10-30T22:12:16.481Z,14
2022-10-30T22:17:16.585Z,12
2022-10-30T22:23:06.234Z,16
2022-10-30T22:28:06.262Z,13
2022-10-30T22:33:06.281Z,15
2022-10-30T22:38:17.180Z,14
2022-10-30T22:44:06.208Z,11
2022-10-30T22:49:06.209Z,13
2022-10-30T22:54:16.561Z,12
2022-10-30T22:59:17.442Z,12
2022-10-30T23:05:06.163Z,12
2022-10-30T23:10:06.228Z,11
2022-10-30T23:15:06.293Z,11
2022-10-30T23:21:06.180Z,10
2022-10-30T23:26:16.528Z,12
2022-10-30T23:31:16.534Z,9
2022-10-30T23:36:16.536Z,10
2022-10-30T23:42:06.432Z,14
2022-10-30T23:47:16.528Z,13
2022-10-30T23:53:06.407Z,14
